• Join FlightAware (Why Join?)
  • Login
  • US Flag GB Flag 
10:58 EDT


 

Airport Tracker/Info


-or-


 

Live Flight TrackerFlight Track Log ✈ N27XP ✈ 30-Apr-2013 ✈ KORF - KSOP

Flight Track Log - Related Links

Times and Time Zones

All times are in EDT time to prevent confusion due to time zone crossing. See the N27XP flight status page for this flight to view local times or setup timezone preferences in your user account.

Time Position Orientation Groundspeed Altitude Reporting Facility
EDT Latitude Longitude Course Direction KTS MPH feet Rate Location/Type
23:21 36.9056 -76.1894 25° Northeast 157 181 800  Level Washington Center
23:22 36.9453 -76.1661 25° Northeast 206 237 2,000 2,460 Climbing Washington Center
23:24 37.0519 -76.1331 14° North 213 245 7,600 2,400 Climbing Washington Center
23:25 37.0431 -76.2111 262° West 144 166 9,200 1,680 Climbing Washington Center
23:26 37.0008 -76.3097 242° Southwest 217 250 11,000 1,680 Climbing Washington Center
23:27 36.9544 -76.4183 242° Southwest 290 334 12,600 1,620 Climbing Washington Center
23:28 36.9097 -76.5322 244° Southwest 335 386 14,300 1,680 Climbing Washington Center
23:29 36.8608 -76.6458 242° Southwest 361 415 16,100 1,680 Climbing Washington Center
23:30 36.8158 -76.7594 244° Southwest 367 422 17,800 960 Climbing Washington Center
23:31 36.7667 -76.8781 243° Southwest 373 429 18,000 60 Climbing Washington Center
23:32 36.7131 -77.0067 243° Southwest 398 458 18,000  Level Washington Center
23:33 36.6572 -77.1350 242° Southwest 413 475 18,000  Level Washington Center
23:34 36.5992 -77.2606 240° Southwest 420 483 18,000  Level Washington Center
23:35 36.5289 -77.3728 232° Southwest 420 483 18,000  Level Washington Center
23:36 36.4583 -77.4875 233° Southwest 420 483 18,000 -300 Level Washington Center
23:37 36.3789 -77.6144 232° Southwest 425 489 17,500 -780 Descending Washington Center
23:38 36.3103 -77.7289 233° Southwest 425 489 16,500 -1,140 Descending Washington Center
23:39 36.2414 -77.8403 233° Southwest 425 489 15,300 -1,260 Descending Washington Center
23:40 36.1683 -77.9514 231° Southwest 406 467 14,100 -1,260 Descending Washington Center
23:40 36.1425 -77.9917 232° Southwest 405 466 13,600 -1,140 Descending Washington Center
23:41 36.1036 -78.0600 235° Southwest 419 482 13,000 -600 Descending Washington Center
23:41 36.0756 -78.1003 229° Southwest 399 459 13,000  Level Washington Center
23:42 36.0411 -78.1556 232° Southwest 413 475 13,000 -120 Level Washington Center
23:42 36.0067 -78.2058 230° Southwest 396 456 12,900 -540 Descending Washington Center
23:43 35.9675 -78.2739 235° Southwest 408 470 12,500 -840 Descending Washington Center
23:43 35.9350 -78.3242 231° Southwest 394 453 12,100 -840 Descending Washington Center
23:44 35.9069 -78.3667 231° Southwest 408 470 11,700 -900 Descending Washington Center
23:44 35.8681 -78.4269 231° Southwest 385 443 11,200 -1,020 Descending Washington Center
23:45 35.8353 -78.4819 234° Southwest 398 458 10,700 -1,020 Descending Washington Center
23:45 35.8050 -78.5244 229° Southwest 357 411 10,200 -1,080 Descending Washington Center
23:46 35.7789 -78.5722 236° Southwest 372 428 9,700 -960 Descending Washington Center
23:46 35.7442 -78.6194 228° Southwest 311 358 9,200 -1,020 Descending Washington Center
23:47 35.7244 -78.6597 239° Southwest 351 404 8,700 -1,080 Descending Washington Center
23:48 35.6722 -78.7394 231° Southwest 324 373 7,700 -1,080 Descending Washington Center
23:49 35.6222 -78.8167 231° Southwest 307 353 6,600 -1,140 Descending Washington Center
23:50 35.5562 -78.8824 231° Southwest  Level FlightAware Approximate
23:57 35.2333 -79.3833 239° Southwest  Level FlightAware Approximate
23:58 35.2380 -79.3883 239° Southwest  Level Estimated
23:59 35.2333 -79.3833 239° Southwest  Level FlightAware Approximate
00:00 35.2380 -79.3883 239° Southwest  Level Estimated